createdAt,value
2022-12-04T00:01:27.666Z,88.13
2022-12-04T00:04:00.623Z,82.53
2022-12-04T00:06:29.270Z,84.10
2022-12-04T00:08:57.829Z,89.13
2022-12-04T00:11:29.757Z,71.68
2022-12-04T00:14:06.465Z,86.10
2022-12-04T00:16:35.048Z,84.28
2022-12-04T00:19:02.190Z,76.03
2022-12-04T00:35:16.708Z,73.93
2022-12-04T01:03:36.417Z,66.32
2022-12-04T01:09:25.095Z,76.32
2022-12-04T01:11:52.656Z,81.22
2022-12-04T01:14:19.903Z,72.22
2022-12-04T01:16:47.482Z,74.53
2022-12-04T01:19:14.853Z,79.05
2022-12-04T01:21:42.069Z,80.65
2022-12-04T01:24:09.213Z,85.20
2022-12-04T01:26:36.325Z,85.10
2022-12-04T01:29:03.862Z,88.68
2022-12-04T01:31:31.681Z,95.25
2022-12-04T01:33:58.840Z,82.60
2022-12-04T01:36:28.446Z,84.20
2022-12-04T01:38:56.755Z,78.18
2022-12-04T01:41:29.232Z,83.25
2022-12-04T01:47:00.365Z,85.75
2022-12-04T01:49:42.964Z,80.45
2022-12-04T01:52:21.615Z,79.78
2022-12-04T01:55:00.687Z,81.57
2022-12-04T01:57:32.522Z,84.40
2022-12-04T02:00:11.288Z,79.03
2022-12-04T02:02:43.184Z,81.18
2022-12-04T02:05:19.240Z,87.22
2022-12-04T02:07:52.306Z,88.63
2022-12-04T02:10:24.553Z,95.30
2022-12-04T02:13:14.297Z,69.93
2022-12-04T02:16:01.958Z,84.70
2022-12-04T02:19:09.469Z,77.18
2022-12-04T02:21:43.348Z,76.25
2022-12-04T02:24:23.554Z,68.53
2022-12-04T02:27:02.116Z,75.78
2022-12-04T02:29:59.571Z,75.57
2022-12-04T02:33:05.269Z,76.82
2022-12-04T02:35:55.156Z,82.50
2022-12-04T02:38:43.877Z,82.07
2022-12-04T02:41:28.033Z,85.78
2022-12-04T02:44:07.484Z,82.35
2022-12-04T02:46:43.580Z,83.35
2022-12-04T02:49:27.268Z,80.55
2022-12-04T02:51:57.494Z,81.80
2022-12-04T02:54:53.479Z,83.15
2022-12-04T02:57:33.434Z,81.75
2022-12-04T03:00:08.219Z,80.15
2022-12-04T03:02:55.593Z,90.18
2022-12-04T03:05:36.953Z,84.85
2022-12-04T03:08:12.034Z,90.40
2022-12-04T03:10:49.531Z,72.88
2022-12-04T03:13:24.484Z,79.28
2022-12-04T03:16:14.271Z,78.93
2022-12-04T03:18:54.456Z,87.07
2022-12-04T03:21:28.271Z,89.30
2022-12-04T03:24:12.093Z,78.57
2022-12-04T03:26:58.405Z,81.22
2022-12-04T03:30:10.007Z,77.63
2022-12-04T03:32:47.603Z,74.00
2022-12-04T03:35:41.203Z,82.75
2022-12-04T03:38:26.812Z,78.22
2022-12-04T03:41:18.888Z,78.70
2022-12-04T03:44:09.244Z,81.85
2022-12-04T03:47:23.437Z,80.07
2022-12-04T03:50:15.659Z,79.97
2022-12-04T03:53:02.914Z,94.60
2022-12-04T03:56:03.404Z,91.00
2022-12-04T03:58:38.137Z,79.35
2022-12-04T04:01:11.671Z,82.53
2022-12-04T04:03:50.479Z,74.32
2022-12-04T04:06:52.752Z,83.20
2022-12-04T04:09:26.455Z,81.20
2022-12-04T04:12:05.233Z,87.55
2022-12-04T04:15:05.899Z,80.20
2022-12-04T04:18:00.394Z,78.60
2022-12-04T04:21:17.773Z,81.93
2022-12-04T04:24:09.263Z,84.38
2022-12-04T04:26:43.972Z,89.80
2022-12-04T04:29:12.243Z,80.95
2022-12-04T04:32:14.189Z,82.25
2022-12-04T04:34:57.942Z,71.38
2022-12-04T04:37:54.761Z,76.15
2022-12-04T04:41:12.873Z,84.50
2022-12-04T04:44:02.105Z,84.60
2022-12-04T04:46:37.661Z,81.28
2022-12-04T04:49:10.411Z,94.00
2022-12-04T04:51:38.511Z,81.72
2022-12-04T04:54:12.523Z,83.93
2022-12-04T04:56:45.118Z,91.22
2022-12-04T04:59:13.305Z,92.25
2022-12-04T05:01:45.026Z,99.47
2022-12-04T05:04:13.095Z,83.53
2022-12-04T05:06:40.188Z,86.28
2022-12-04T05:09:07.380Z,86.43
2022-12-04T05:11:34.437Z,87.32
2022-12-04T05:14:01.533Z,86.30
2022-12-04T05:16:29.726Z,85.43
2022-12-04T05:19:15.452Z,93.38
2022-12-04T05:21:42.714Z,85.20
2022-12-04T05:24:09.949Z,89.00
2022-12-04T05:26:37.125Z,86.78
2022-12-04T05:29:04.316Z,83.00
2022-12-04T05:31:31.691Z,86.80
2022-12-04T05:34:32.202Z,92.15
2022-12-04T05:36:59.382Z,93.05
2022-12-04T05:39:26.506Z,85.03
2022-12-04T05:41:53.630Z,84.07
2022-12-04T05:44:20.853Z,87.47
2022-12-04T05:46:48.041Z,87.10
2022-12-04T05:49:15.149Z,95.20
2022-12-04T05:51:42.347Z,82.07
2022-12-04T05:54:09.440Z,82.32
2022-12-04T05:56:36.861Z,102.20
2022-12-04T05:59:04.015Z,86.40
2022-12-04T06:01:32.337Z,82.28
2022-12-04T06:03:59.811Z,90.70
2022-12-04T06:06:27.537Z,83.75
2022-12-04T06:08:59.536Z,85.13
2022-12-04T06:11:37.942Z,85.72
2022-12-04T06:14:08.973Z,79.22
2022-12-04T06:16:41.116Z,88.53
2022-12-04T06:19:13.165Z,87.25
2022-12-04T06:21:42.835Z,73.65
2022-12-04T06:24:16.434Z,88.43
2022-12-04T06:27:04.058Z,83.18
2022-12-04T06:29:31.525Z,86.00
2022-12-04T06:31:59.233Z,86.60
2022-12-04T06:34:26.602Z,84.25
2022-12-04T06:36:53.758Z,78.93
2022-12-04T06:39:21.085Z,80.47
2022-12-04T06:41:48.341Z,82.68
2022-12-04T06:44:16.611Z,83.80
2022-12-04T06:46:47.154Z,84.43
2022-12-04T06:49:15.126Z,90.47
2022-12-04T06:51:42.409Z,82.18
2022-12-04T06:54:10.901Z,83.75
2022-12-04T06:56:38.006Z,86.13
2022-12-04T06:59:05.714Z,83.72
2022-12-04T07:01:35.229Z,80.47
2022-12-04T07:04:04.322Z,84.95
2022-12-04T07:06:35.694Z,79.40
2022-12-04T07:09:13.879Z,79.80
2022-12-04T07:11:42.279Z,86.15
2022-12-04T07:14:10.970Z,86.68
2022-12-04T07:16:41.999Z,81.25
2022-12-04T07:19:11.415Z,86.72
2022-12-04T07:21:38.697Z,84.95
2022-12-04T07:24:06.379Z,81.88
2022-12-04T07:26:33.528Z,80.50
2022-12-04T07:29:00.803Z,86.57
2022-12-04T07:31:30.386Z,85.80
2022-12-04T07:33:58.671Z,86.38
2022-12-04T07:36:27.257Z,90.15
2022-12-04T07:38:56.561Z,87.50
2022-12-04T07:41:24.337Z,91.32
2022-12-04T07:43:51.576Z,87.93
2022-12-04T07:46:23.162Z,91.50
2022-12-04T07:48:50.463Z,94.03
2022-12-04T07:51:25.040Z,85.40
2022-12-04T07:53:53.625Z,100.93
2022-12-04T07:56:21.777Z,99.28
2022-12-04T07:58:49.009Z,98.20
2022-12-04T08:01:22.647Z,90.75
2022-12-04T08:03:52.848Z,90.00
2022-12-04T08:06:23.507Z,91.50
2022-12-04T08:08:52.057Z,85.10
2022-12-04T08:11:22.525Z,88.18
2022-12-04T08:13:55.988Z,92.38
2022-12-04T08:16:23.471Z,90.55
2022-12-04T08:18:50.797Z,86.97
2022-12-04T08:21:22.817Z,82.53
2022-12-04T08:23:52.991Z,88.57
2022-12-04T08:26:22.750Z,99.38
2022-12-04T08:28:53.658Z,89.05
2022-12-04T08:31:27.640Z,88.78
2022-12-04T08:33:58.047Z,80.90
2022-12-04T08:36:29.775Z,97.45
2022-12-04T08:38:57.077Z,99.35
2022-12-04T08:41:26.239Z,89.65
2022-12-04T08:43:55.503Z,94.28
2022-12-04T08:46:28.004Z,96.82
2022-12-04T08:48:56.280Z,83.50
2022-12-04T08:51:27.477Z,94.45
2022-12-04T08:53:57.834Z,85.55
2022-12-04T08:56:27.175Z,84.80
2022-12-04T08:58:57.095Z,84.55
2022-12-04T09:01:25.939Z,93.78
2022-12-04T09:03:54.855Z,102.07
2022-12-04T09:06:23.087Z,93.85
2022-12-04T09:08:56.135Z,92.70
2022-12-04T09:11:26.987Z,98.38
2022-12-04T09:13:55.972Z,87.55
2022-12-04T09:16:25.592Z,92.63
2022-12-04T09:18:54.086Z,86.40
2022-12-04T09:21:23.781Z,88.22
2022-12-04T09:23:51.721Z,87.47
2022-12-04T09:26:26.584Z,89.80
2022-12-04T09:28:55.866Z,83.03
2022-12-04T09:31:24.402Z,91.95
2022-12-04T09:33:52.597Z,89.13
2022-12-04T09:36:20.249Z,94.72
2022-12-04T09:38:51.439Z,89.72
2022-12-04T09:41:36.473Z,89.40
2022-12-04T09:44:32.458Z,82.57
2022-12-04T09:47:05.931Z,83.90
2022-12-04T09:49:45.568Z,93.78
2022-12-04T09:52:32.002Z,89.95
2022-12-04T09:55:02.788Z,87.78
2022-12-04T09:57:41.386Z,86.63
2022-12-04T10:00:15.784Z,80.20
2022-12-04T10:02:50.406Z,86.90
2022-12-04T10:05:45.769Z,90.15
2022-12-04T10:08:30.054Z,86.95
2022-12-04T10:11:47.761Z,82.28
2022-12-04T10:14:45.809Z,79.50
2022-12-04T10:17:55.466Z,87.57
2022-12-04T10:20:57.390Z,86.95
2022-12-04T10:23:49.030Z,78.50
2022-12-04T10:26:23.002Z,94.95
2022-12-04T10:29:01.564Z,84.72
2022-12-04T10:31:33.107Z,87.55
2022-12-04T10:34:19.290Z,84.90
2022-12-04T10:36:55.844Z,85.78
2022-12-04T10:39:44.621Z,88.53
2022-12-04T10:42:26.828Z,85.15
2022-12-04T10:44:54.939Z,81.88
2022-12-04T10:47:24.729Z,79.63
2022-12-04T10:50:04.905Z,80.78
2022-12-04T10:52:32.010Z,89.32
2022-12-04T10:55:01.720Z,85.78
2022-12-04T10:57:55.284Z,86.82
2022-12-04T11:00:32.760Z,91.07
2022-12-04T11:03:04.070Z,89.68
2022-12-04T11:05:46.133Z,87.45
2022-12-04T11:08:35.699Z,87.65
2022-12-04T11:11:08.229Z,80.22
2022-12-04T11:16:04.280Z,74.95
2022-12-04T11:18:35.741Z,77.25
2022-12-04T11:21:04.696Z,81.40
2022-12-04T11:23:52.526Z,79.65
2022-12-04T11:26:42.586Z,79.75
2022-12-04T11:29:17.033Z,82.20
2022-12-04T11:31:53.621Z,82.47
2022-12-04T11:34:28.596Z,84.40
2022-12-04T11:36:58.018Z,79.88
2022-12-04T11:39:38.942Z,84.05
2022-12-04T11:42:23.210Z,80.25
2022-12-04T11:45:15.525Z,84.60
2022-12-04T11:48:05.057Z,82.03
2022-12-04T11:51:05.063Z,78.25
2022-12-04T11:53:55.704Z,87.05
2022-12-04T11:56:47.146Z,77.50
2022-12-04T11:59:57.105Z,72.25
2022-12-04T12:03:13.441Z,90.60
2022-12-04T12:06:09.442Z,83.30
2022-12-04T12:09:04.655Z,78.20
2022-12-04T12:12:05.434Z,83.20
2022-12-04T12:15:27.991Z,86.90
2022-12-04T12:18:07.637Z,80.10
2022-12-04T12:21:27.000Z,77.72
2022-12-04T12:24:45.622Z,78.82
2022-12-04T12:27:27.565Z,83.78
2022-12-04T12:30:19.575Z,84.72
2022-12-04T12:33:17.846Z,81.30
2022-12-04T12:36:06.144Z,82.22
2022-12-04T12:38:51.704Z,85.05
2022-12-04T12:41:35.962Z,81.68
2022-12-04T12:44:36.400Z,84.18
2022-12-04T12:47:15.000Z,76.85
2022-12-04T12:50:19.985Z,92.60
2022-12-04T12:53:38.306Z,78.60
2022-12-04T12:56:11.966Z,85.22
2022-12-04T12:58:45.985Z,77.15
2022-12-04T13:01:24.749Z,84.75
2022-12-04T13:04:09.716Z,80.50
2022-12-04T13:06:41.736Z,73.95
2022-12-04T13:09:34.330Z,87.97
2022-12-04T13:12:14.662Z,79.90
2022-12-04T13:14:46.025Z,79.97
2022-12-04T13:17:37.333Z,88.70
2022-12-04T13:20:14.212Z,78.78
2022-12-04T13:23:13.651Z,84.72
2022-12-04T13:26:20.236Z,84.30
2022-12-04T13:29:04.638Z,86.75
2022-12-04T13:32:10.665Z,88.68
2022-12-04T13:35:00.661Z,78.80
2022-12-04T13:38:05.819Z,87.75
2022-12-04T13:40:44.245Z,88.45
2022-12-04T13:43:27.879Z,91.50
2022-12-04T13:46:00.610Z,91.10
2022-12-04T13:48:40.216Z,93.78
2022-12-04T13:51:13.614Z,86.22
2022-12-04T13:53:45.984Z,96.80
2022-12-04T13:56:30.518Z,88.68
2022-12-04T13:59:21.039Z,91.50
2022-12-04T14:01:53.870Z,85.85
2022-12-04T14:07:30.543Z,87.32
2022-12-04T14:10:04.639Z,81.07
2022-12-04T14:12:40.823Z,75.05
2022-12-04T14:15:24.161Z,78.32
2022-12-04T14:18:14.161Z,77.03
2022-12-04T14:20:44.627Z,92.32
2022-12-04T14:23:26.285Z,93.35
2022-12-04T14:25:59.168Z,91.78
2022-12-04T14:28:42.683Z,87.40
2022-12-04T14:31:25.607Z,82.40
2022-12-04T14:34:11.322Z,91.38
2022-12-04T14:36:47.441Z,89.80
2022-12-04T14:39:27.539Z,98.60
2022-12-04T14:42:21.771Z,100.03
2022-12-04T14:44:58.584Z,87.03
2022-12-04T14:47:33.859Z,96.97
2022-12-04T14:50:23.297Z,107.65
2022-12-04T14:53:09.386Z,92.25
2022-12-04T14:56:07.776Z,97.63
2022-12-04T14:58:39.502Z,104.80
2022-12-04T15:01:29.762Z,109.18
2022-12-04T15:04:07.315Z,106.00
2022-12-04T15:06:34.686Z,106.72
2022-12-04T15:09:23.701Z,97.60
2022-12-04T15:12:16.940Z,103.90
2022-12-04T15:14:48.215Z,100.00
2022-12-04T15:17:18.803Z,110.07
2022-12-04T15:19:46.016Z,103.35
2022-12-04T15:22:23.737Z,98.30
2022-12-04T15:24:52.770Z,115.65
2022-12-04T15:27:28.832Z,104.10
2022-12-04T15:30:02.218Z,105.95
2022-12-04T15:32:32.230Z,106.53
2022-12-04T15:35:08.911Z,108.35
2022-12-04T15:37:37.056Z,95.22
2022-12-04T15:40:09.391Z,112.95
2022-12-04T15:42:36.835Z,103.88
2022-12-04T15:45:09.697Z,100.82
2022-12-04T15:47:43.100Z,102.43
2022-12-04T15:50:31.363Z,107.20
2022-12-04T15:53:08.305Z,99.68
2022-12-04T15:55:46.926Z,96.38
2022-12-04T15:58:39.606Z,113.78
2022-12-04T16:01:11.632Z,111.22
2022-12-04T16:03:42.060Z,106.85
2022-12-04T16:06:18.016Z,114.40
2022-12-04T16:08:55.466Z,103.57
2022-12-04T16:11:32.810Z,105.15
2022-12-04T16:14:16.988Z,102.82
2022-12-04T16:16:49.526Z,103.07
2022-12-04T16:19:36.457Z,99.53
2022-12-04T16:22:14.618Z,100.90
2022-12-04T16:24:42.091Z,107.47
2022-12-04T16:27:17.344Z,106.55
2022-12-04T16:30:04.222Z,98.43
2022-12-04T16:32:33.993Z,107.65
2022-12-04T16:35:08.766Z,104.22
2022-12-04T16:37:50.021Z,108.93
2022-12-04T16:40:38.392Z,101.82
2022-12-04T16:43:15.319Z,99.40
2022-12-04T16:46:34.376Z,98.45
2022-12-04T16:49:30.980Z,97.70
2022-12-04T16:52:30.271Z,107.93
2022-12-04T16:55:37.660Z,94.38
2022-12-04T16:58:34.652Z,96.50
2022-12-04T17:02:10.035Z,100.50
2022-12-04T17:05:00.071Z,89.97
2022-12-04T17:07:54.459Z,90.53
2022-12-04T17:10:53.642Z,90.88
2022-12-04T17:13:22.229Z,96.40
2022-12-04T17:16:07.220Z,88.40
2022-12-04T17:19:03.371Z,92.85
2022-12-04T17:22:10.507Z,94.57
2022-12-04T17:25:07.516Z,100.47
2022-12-04T17:28:19.023Z,86.93
2022-12-04T17:31:09.820Z,85.70
2022-12-04T17:34:31.292Z,88.30
2022-12-04T17:37:34.941Z,84.10
2022-12-04T17:40:38.733Z,84.05
2022-12-04T17:43:32.511Z,79.70
2022-12-04T17:46:52.139Z,83.47
2022-12-04T17:49:31.796Z,80.70
2022-12-04T17:53:10.515Z,79.85
2022-12-04T17:55:57.304Z,85.55
2022-12-04T18:02:38.220Z,75.03
2022-12-04T18:05:19.120Z,80.85
2022-12-04T18:07:48.645Z,74.47
2022-12-04T18:10:32.056Z,80.65
2022-12-04T18:13:29.287Z,79.75
2022-12-04T18:16:20.672Z,81.72
2022-12-04T18:19:03.640Z,73.82
2022-12-04T18:22:04.123Z,68.00
2022-12-04T18:25:00.959Z,54.03
2022-12-04T18:27:28.060Z,52.30
2022-12-04T18:30:19.266Z,48.92
2022-12-04T18:33:18.840Z,53.45
2022-12-04T18:36:12.209Z,43.45
2022-12-04T18:42:23.457Z,71.25
2022-12-04T18:44:56.141Z,80.50
2022-12-04T18:47:23.405Z,79.65
2022-12-04T18:49:50.605Z,76.43
2022-12-04T18:52:20.975Z,83.03
2022-12-04T18:54:49.025Z,78.50
2022-12-04T18:57:16.639Z,88.75
2022-12-04T18:59:43.774Z,89.60
2022-12-04T19:08:31.383Z,69.47
2022-12-04T19:11:24.511Z,84.85
2022-12-04T19:14:08.294Z,88.40
2022-12-04T19:17:37.956Z,80.22
2022-12-04T19:20:24.017Z,85.85
2022-12-04T19:23:16.586Z,75.47
2022-12-04T19:36:32.180Z,30.90
2022-12-04T19:39:37.981Z,30.35
2022-12-04T19:42:40.007Z,29.45
2022-12-04T19:45:30.899Z,29.45
2022-12-04T19:48:15.451Z,30.88
2022-12-04T19:54:04.926Z,29.05
2022-12-04T19:57:14.126Z,28.85
2022-12-04T20:00:06.834Z,30.90
2022-12-04T20:02:39.730Z,26.88
2022-12-04T20:05:07.375Z,26.27
2022-12-04T20:07:34.585Z,26.40
2022-12-04T20:10:01.686Z,32.72
2022-12-04T20:12:28.867Z,28.13
2022-12-04T20:14:56.226Z,33.03
2022-12-04T20:17:23.345Z,30.30
2022-12-04T20:19:50.567Z,34.13
2022-12-04T20:22:18.296Z,29.05
2022-12-04T20:24:45.301Z,26.70
2022-12-04T20:27:12.306Z,30.98
2022-12-04T20:29:39.767Z,31.73
2022-12-04T20:32:06.926Z,33.55
2022-12-04T20:34:36.577Z,31.70
2022-12-04T20:37:09.748Z,30.27
2022-12-04T20:39:37.306Z,29.48
2022-12-04T20:42:04.621Z,27.67
2022-12-04T20:44:31.570Z,32.85
2022-12-04T20:46:58.710Z,27.70
2022-12-04T20:49:25.709Z,30.90
2022-12-04T20:51:52.860Z,27.13
2022-12-04T20:54:22.007Z,28.98
2022-12-04T20:56:52.007Z,28.15
2022-12-04T20:59:22.148Z,31.48
2022-12-04T21:01:49.783Z,29.90
2022-12-04T21:04:18.191Z,27.45
2022-12-04T21:06:46.950Z,28.83
2022-12-04T21:10:15.548Z,27.98
2022-12-04T21:13:01.594Z,28.33
2022-12-04T21:15:47.174Z,25.67
2022-12-04T21:18:14.378Z,28.50
2022-12-04T21:20:41.543Z,25.48
2022-12-04T21:23:09.079Z,27.55
2022-12-04T21:25:36.773Z,38.67
2022-12-04T21:28:04.047Z,36.47
2022-12-04T21:30:31.347Z,40.70
2022-12-04T21:32:58.348Z,36.28
2022-12-04T21:35:25.304Z,41.75
2022-12-04T21:37:52.424Z,31.35
2022-12-04T21:40:19.496Z,28.20
2022-12-04T21:42:46.527Z,24.35
2022-12-04T21:45:13.653Z,24.55
2022-12-04T21:47:40.917Z,27.85
2022-12-04T21:50:08.845Z,25.58
2022-12-04T21:52:35.959Z,25.05
2022-12-04T21:55:03.039Z,23.92
2022-12-04T21:57:30.548Z,29.63
2022-12-04T21:59:58.025Z,22.77
2022-12-04T22:02:25.368Z,27.52
2022-12-04T22:04:52.475Z,21.38
2022-12-04T22:07:19.769Z,22.70
2022-12-04T22:09:46.929Z,23.10
2022-12-04T22:12:47.439Z,19.98
2022-12-04T22:15:01.068Z,20.75
2022-12-04T22:17:31.229Z,22.90
2022-12-04T22:19:58.552Z,15.98
2022-12-04T22:22:25.887Z,20.48
2022-12-04T22:24:53.469Z,24.55
2022-12-04T22:27:20.646Z,18.95
2022-12-04T22:29:50.835Z,23.20
2022-12-04T22:32:19.897Z,20.05
2022-12-04T22:34:49.943Z,16.98
2022-12-04T22:37:17.229Z,21.67
2022-12-04T22:39:44.248Z,21.35
2022-12-04T22:42:11.577Z,19.75
2022-12-04T22:44:38.657Z,24.90
2022-12-04T22:47:05.752Z,20.38
2022-12-04T22:49:32.928Z,18.23
2022-12-04T22:52:00.687Z,17.98
2022-12-04T22:54:27.822Z,23.98
2022-12-04T22:56:55.285Z,20.65
2022-12-04T22:59:22.428Z,20.42
2022-12-04T23:01:49.486Z,21.90
2022-12-04T23:04:16.555Z,22.15
2022-12-04T23:06:43.675Z,23.23
2022-12-04T23:09:16.996Z,26.98
2022-12-04T23:11:46.100Z,21.63
2022-12-04T23:14:15.486Z,19.52
2022-12-04T23:16:43.197Z,22.77
2022-12-04T23:19:14.544Z,22.00
2022-12-04T23:21:43.844Z,25.88
2022-12-04T23:24:12.703Z,25.50
2022-12-04T23:26:44.881Z,19.20
2022-12-04T23:29:37.072Z,23.80
2022-12-04T23:32:00.885Z,27.17
2022-12-04T23:34:28.225Z,25.08
2022-12-04T23:36:55.623Z,23.42
2022-12-04T23:39:23.357Z,25.98
2022-12-04T23:41:50.804Z,27.83
2022-12-04T23:44:19.525Z,24.23
2022-12-04T23:46:46.885Z,27.25
2022-12-04T23:49:14.083Z,25.98
2022-12-04T23:51:41.187Z,27.42
2022-12-04T23:54:08.374Z,26.83
2022-12-04T23:56:35.856Z,29.75
2022-12-04T23:59:03.402Z,28.88
